Caledonia, Canada
Current Conditions -  °F | °C
As of 3:00 PM on Friday 19 Dec 2014 (Local Time) from CYHM Reporting Station
Broken Clouds Broken Clouds  
Wind Chill: 20°   Ceiling: 14000
Heat Index: 28°   Visibility: 15mi
Dew Point: 21°   Wind: 9mph
Humidity: 74%   Direction: 300°WNW
Pressure: 30.18"   Gusts: NA
Location:  43.07°N, 79.95°W
Report Text: CYHM 192000Z 30008KT 15SM FEW017 SCT085 BKN140 M02/M06 A3018 RMK CU2AC2AC2 SLP233
Loading
Personal Weather Stations






























Interactive Weather Map New forecast layout! Learn more

10-Day Weather Forecast

Advertisements
Track Severe Weather on mobile